sensor_id;sensor_type;location;lat;lon;timestamp;P1;durP1;ratioP1;P2;durP2;ratioP2
61915;SDS011;47868;51.326;6.550;2022-12-18T00:01:20;22.70;;;15.67;;
61915;SDS011;47868;51.326;6.550;2022-12-18T00:03:47;25.37;;;15.50;;
61915;SDS011;47868;51.326;6.550;2022-12-18T00:06:13;22.83;;;14.77;;
61915;SDS011;47868;51.326;6.550;2022-12-18T00:08:39;23.10;;;15.60;;
61915;SDS011;47868;51.326;6.550;2022-12-18T00:11:06;26.03;;;15.77;;
61915;SDS011;47868;51.326;6.550;2022-12-18T00:13:32;26.77;;;15.43;;
61915;SDS011;47868;51.326;6.550;2022-12-18T00:16:06;23.70;;;15.23;;
61915;SDS011;47868;51.326;6.550;2022-12-18T00:18:32;24.13;;;14.30;;
61915;SDS011;47868;51.326;6.550;2022-12-18T00:20:59;21.33;;;13.87;;
61915;SDS011;47868;51.326;6.550;2022-12-18T00:23:26;19.83;;;13.93;;
61915;SDS011;47868;51.326;6.550;2022-12-18T00:25:52;23.13;;;14.63;;
61915;SDS011;47868;51.326;6.550;2022-12-18T00:28:18;24.33;;;14.63;;
61915;SDS011;47868;51.326;6.550;2022-12-18T00:30:44;20.43;;;14.80;;
61915;SDS011;47868;51.326;6.550;2022-12-18T00:33:10;19.23;;;13.70;;
61915;SDS011;47868;51.326;6.550;2022-12-18T00:35:36;22.60;;;13.70;;
61915;SDS011;47868;51.326;6.550;2022-12-18T00:38:02;19.23;;;12.60;;
61915;SDS011;47868;51.326;6.550;2022-12-18T00:40:28;24.50;;;13.63;;
61915;SDS011;47868;51.326;6.550;2022-12-18T00:42:54;18.00;;;12.50;;
61915;SDS011;47868;51.326;6.550;2022-12-18T00:45:20;18.73;;;11.67;;
61915;SDS011;47868;51.326;6.550;2022-12-18T00:47:50;20.20;;;11.73;;
61915;SDS011;47868;51.326;6.550;2022-12-18T00:50:16;20.20;;;13.40;;
61915;SDS011;47868;51.326;6.550;2022-12-18T00:52:42;18.30;;;12.30;;
61915;SDS011;47868;51.326;6.550;2022-12-18T00:55:08;19.33;;;12.83;;
61915;SDS011;47868;51.326;6.550;2022-12-18T00:57:34;16.20;;;11.67;;
61915;SDS011;47868;51.326;6.550;2022-12-18T01:00:00;19.50;;;13.07;;
61915;SDS011;47868;51.326;6.550;2022-12-18T01:02:26;17.77;;;12.40;;
61915;SDS011;47868;51.326;6.550;2022-12-18T01:04:52;19.33;;;12.43;;
61915;SDS011;47868;51.326;6.550;2022-12-18T01:07:18;18.17;;;12.50;;
61915;SDS011;47868;51.326;6.550;2022-12-18T01:09:44;20.07;;;12.67;;
61915;SDS011;47868;51.326;6.550;2022-12-18T01:12:10;19.27;;;12.03;;
61915;SDS011;47868;51.326;6.550;2022-12-18T01:14:36;19.07;;;12.33;;
61915;SDS011;47868;51.326;6.550;2022-12-18T01:17:03;20.40;;;12.27;;
61915;SDS011;47868;51.326;6.550;2022-12-18T01:19:30;19.20;;;13.10;;
61915;SDS011;47868;51.326;6.550;2022-12-18T01:21:56;20.57;;;12.50;;
61915;SDS011;47868;51.326;6.550;2022-12-18T01:24:22;20.30;;;12.67;;
61915;SDS011;47868;51.326;6.550;2022-12-18T01:26:48;19.77;;;12.60;;
61915;SDS011;47868;51.326;6.550;2022-12-18T01:29:14;18.17;;;11.67;;
61915;SDS011;47868;51.326;6.550;2022-12-18T01:31:40;16.07;;;11.20;;
61915;SDS011;47868;51.326;6.550;2022-12-18T01:34:06;20.17;;;12.27;;
61915;SDS011;47868;51.326;6.550;2022-12-18T01:36:34;19.57;;;12.47;;
61915;SDS011;47868;51.326;6.550;2022-12-18T01:39:01;20.63;;;13.00;;
61915;SDS011;47868;51.326;6.550;2022-12-18T01:41:28;19.30;;;12.23;;
61915;SDS011;47868;51.326;6.550;2022-12-18T01:46:59;19.20;;;11.90;;
61915;SDS011;47868;51.326;6.550;2022-12-18T01:49:26;21.83;;;11.57;;
61915;SDS011;47868;51.326;6.550;2022-12-18T01:51:52;17.30;;;12.00;;
61915;SDS011;47868;51.326;6.550;2022-12-18T01:54:18;21.07;;;12.63;;
61915;SDS011;47868;51.326;6.550;2022-12-18T01:56:44;18.43;;;12.23;;
61915;SDS011;47868;51.326;6.550;2022-12-18T01:59:10;18.03;;;12.20;;
61915;SDS011;47868;51.326;6.550;2022-12-18T02:01:36;21.27;;;13.07;;
61915;SDS011;47868;51.326;6.550;2022-12-18T02:04:19;19.40;;;12.63;;
61915;SDS011;47868;51.326;6.550;2022-12-18T02:06:45;18.20;;;12.63;;
61915;SDS011;47868;51.326;6.550;2022-12-18T02:09:14;18.57;;;11.90;;
61915;SDS011;47868;51.326;6.550;2022-12-18T02:11:58;21.90;;;12.23;;
61915;SDS011;47868;51.326;6.550;2022-12-18T02:16:53;16.93;;;11.67;;
61915;SDS011;47868;51.326;6.550;2022-12-18T02:20:07;18.80;;;12.53;;
61915;SDS011;47868;51.326;6.550;2022-12-18T02:22:20;16.97;;;12.00;;
61915;SDS011;47868;51.326;6.550;2022-12-18T02:24:59;17.10;;;12.07;;
61915;SDS011;47868;51.326;6.550;2022-12-18T02:27:27;21.90;;;13.63;;
61915;SDS011;47868;51.326;6.550;2022-12-18T02:29:54;19.57;;;11.60;;
61915;SDS011;47868;51.326;6.550;2022-12-18T02:32:22;20.47;;;12.30;;
61915;SDS011;47868;51.326;6.550;2022-12-18T02:34:50;21.07;;;12.60;;
61915;SDS011;47868;51.326;6.550;2022-12-18T02:37:17;18.83;;;12.07;;
61915;SDS011;47868;51.326;6.550;2022-12-18T02:39:44;22.90;;;12.30;;
61915;SDS011;47868;51.326;6.550;2022-12-18T02:42:11;20.80;;;12.47;;
61915;SDS011;47868;51.326;6.550;2022-12-18T02:44:42;19.53;;;12.53;;
61915;SDS011;47868;51.326;6.550;2022-12-18T02:47:10;20.90;;;13.03;;
61915;SDS011;47868;51.326;6.550;2022-12-18T03:02:51;19.23;;;12.57;;
61915;SDS011;47868;51.326;6.550;2022-12-18T03:05:22;19.17;;;12.03;;
61915;SDS011;47868;51.326;6.550;2022-12-18T03:07:56;18.37;;;12.80;;
61915;SDS011;47868;51.326;6.550;2022-12-18T03:10:28;20.33;;;11.63;;
61915;SDS011;47868;51.326;6.550;2022-12-18T03:13:00;20.20;;;13.03;;
61915;SDS011;47868;51.326;6.550;2022-12-18T03:15:28;17.13;;;12.33;;
61915;SDS011;47868;51.326;6.550;2022-12-18T03:18:06;15.73;;;12.00;;
61915;SDS011;47868;51.326;6.550;2022-12-18T03:20:34;18.07;;;12.53;;
61915;SDS011;47868;51.326;6.550;2022-12-18T03:23:07;17.10;;;12.77;;
61915;SDS011;47868;51.326;6.550;2022-12-18T03:25:34;20.67;;;12.30;;
61915;SDS011;47868;51.326;6.550;2022-12-18T03:28:02;19.80;;;13.03;;
61915;SDS011;47868;51.326;6.550;2022-12-18T03:30:30;19.97;;;12.43;;
61915;SDS011;47868;51.326;6.550;2022-12-18T03:32:58;20.93;;;12.67;;
61915;SDS011;47868;51.326;6.550;2022-12-18T03:35:28;18.03;;;12.30;;
61915;SDS011;47868;51.326;6.550;2022-12-18T03:37:54;17.70;;;12.03;;
61915;SDS011;47868;51.326;6.550;2022-12-18T03:40:21;18.07;;;11.80;;
61915;SDS011;47868;51.326;6.550;2022-12-18T03:42:50;21.30;;;12.27;;
61915;SDS011;47868;51.326;6.550;2022-12-18T03:45:26;16.50;;;11.47;;
61915;SDS011;47868;51.326;6.550;2022-12-18T03:50:53;17.53;;;10.67;;
61915;SDS011;47868;51.326;6.550;2022-12-18T03:53:42;18.40;;;12.77;;
61915;SDS011;47868;51.326;6.550;2022-12-18T03:56:11;17.70;;;11.30;;
61915;SDS011;47868;51.326;6.550;2022-12-18T03:58:39;18.67;;;12.03;;
61915;SDS011;47868;51.326;6.550;2022-12-18T04:01:06;19.00;;;11.47;;
61915;SDS011;47868;51.326;6.550;2022-12-18T04:03:33;17.33;;;11.80;;
61915;SDS011;47868;51.326;6.550;2022-12-18T04:06:00;17.53;;;11.37;;
61915;SDS011;47868;51.326;6.550;2022-12-18T04:08:26;18.63;;;11.20;;
61915;SDS011;47868;51.326;6.550;2022-12-18T04:10:52;16.67;;;10.97;;
61915;SDS011;47868;51.326;6.550;2022-12-18T04:13:22;16.90;;;11.00;;
61915;SDS011;47868;51.326;6.550;2022-12-18T04:15:48;16.70;;;10.57;;
61915;SDS011;47868;51.326;6.550;2022-12-18T04:18:14;18.63;;;10.90;;
61915;SDS011;47868;51.326;6.550;2022-12-18T04:20:40;16.53;;;11.37;;
61915;SDS011;47868;51.326;6.550;2022-12-18T04:23:06;18.17;;;11.37;;
61915;SDS011;47868;51.326;6.550;2022-12-18T04:25:32;19.53;;;10.63;;
61915;SDS011;47868;51.326;6.550;2022-12-18T04:27:58;17.63;;;11.00;;
61915;SDS011;47868;51.326;6.550;2022-12-18T04:30:24;17.10;;;10.63;;
61915;SDS011;47868;51.326;6.550;2022-12-18T04:32:50;19.80;;;11.17;;
61915;SDS011;47868;51.326;6.550;2022-12-18T04:35:17;18.30;;;10.80;;
61915;SDS011;47868;51.326;6.550;2022-12-18T04:37:43;18.80;;;10.67;;
61915;SDS011;47868;51.326;6.550;2022-12-18T04:40:09;13.97;;;10.43;;
61915;SDS011;47868;51.326;6.550;2022-12-18T04:42:35;14.43;;;9.80;;
61915;SDS011;47868;51.326;6.550;2022-12-18T04:45:02;15.77;;;10.83;;
61915;SDS011;47868;51.326;6.550;2022-12-18T04:47:28;16.93;;;10.67;;
61915;SDS011;47868;51.326;6.550;2022-12-18T04:49:54;15.67;;;10.70;;
61915;SDS011;47868;51.326;6.550;2022-12-18T04:52:20;14.33;;;9.97;;
61915;SDS011;47868;51.326;6.550;2022-12-18T04:54:46;13.70;;;10.33;;
61915;SDS011;47868;51.326;6.550;2022-12-18T04:57:12;15.13;;;10.33;;
61915;SDS011;47868;51.326;6.550;2022-12-18T04:59:38;15.23;;;10.20;;
61915;SDS011;47868;51.326;6.550;2022-12-18T05:02:04;14.13;;;10.37;;
61915;SDS011;47868;51.326;6.550;2022-12-18T05:04:30;13.57;;;10.90;;
61915;SDS011;47868;51.326;6.550;2022-12-18T05:06:56;14.73;;;10.37;;
61915;SDS011;47868;51.326;6.550;2022-12-18T05:09:22;16.50;;;11.00;;
61915;SDS011;47868;51.326;6.550;2022-12-18T05:11:48;15.67;;;10.10;;
61915;SDS011;47868;51.326;6.550;2022-12-18T05:14:14;14.90;;;10.50;;
61915;SDS011;47868;51.326;6.550;2022-12-18T05:16:40;18.97;;;11.07;;
61915;SDS011;47868;51.326;6.550;2022-12-18T05:19:06;17.00;;;10.60;;
61915;SDS011;47868;51.326;6.550;2022-12-18T05:21:32;15.67;;;10.63;;
61915;SDS011;47868;51.326;6.550;2022-12-18T05:23:58;14.47;;;10.43;;
61915;SDS011;47868;51.326;6.550;2022-12-18T05:26:24;13.60;;;9.23;;
61915;SDS011;47868;51.326;6.550;2022-12-18T05:28:50;14.20;;;9.97;;
61915;SDS011;47868;51.326;6.550;2022-12-18T05:31:16;16.50;;;10.03;;
61915;SDS011;47868;51.326;6.550;2022-12-18T05:33:42;12.70;;;9.23;;
61915;SDS011;47868;51.326;6.550;2022-12-18T05:36:08;12.93;;;8.93;;
61915;SDS011;47868;51.326;6.550;2022-12-18T05:38:36;16.67;;;9.67;;
61915;SDS011;47868;51.326;6.550;2022-12-18T05:41:02;13.53;;;8.97;;
61915;SDS011;47868;51.326;6.550;2022-12-18T05:43:28;16.30;;;9.77;;
61915;SDS011;47868;51.326;6.550;2022-12-18T05:45:55;17.03;;;9.63;;
61915;SDS011;47868;51.326;6.550;2022-12-18T05:48:21;14.87;;;9.90;;
61915;SDS011;47868;51.326;6.550;2022-12-18T05:50:48;13.43;;;9.53;;
61915;SDS011;47868;51.326;6.550;2022-12-18T05:53:15;15.33;;;9.90;;
61915;SDS011;47868;51.326;6.550;2022-12-18T05:55:42;16.50;;;10.10;;
61915;SDS011;47868;51.326;6.550;2022-12-18T05:58:09;13.60;;;9.87;;
61915;SDS011;47868;51.326;6.550;2022-12-18T06:00:36;15.30;;;10.33;;
61915;SDS011;47868;51.326;6.550;2022-12-18T06:03:06;13.33;;;9.80;;
61915;SDS011;47868;51.326;6.550;2022-12-18T06:05:36;12.70;;;9.60;;
61915;SDS011;47868;51.326;6.550;2022-12-18T06:08:02;15.07;;;10.00;;
61915;SDS011;47868;51.326;6.550;2022-12-18T06:10:28;15.27;;;10.60;;
61915;SDS011;47868;51.326;6.550;2022-12-18T06:12:54;13.40;;;9.90;;
61915;SDS011;47868;51.326;6.550;2022-12-18T06:15:20;14.00;;;9.93;;
61915;SDS011;47868;51.326;6.550;2022-12-18T06:17:46;15.47;;;10.03;;
61915;SDS011;47868;51.326;6.550;2022-12-18T06:20:12;17.97;;;9.53;;
61915;SDS011;47868;51.326;6.550;2022-12-18T06:22:38;13.77;;;9.80;;
61915;SDS011;47868;51.326;6.550;2022-12-18T06:25:04;12.63;;;9.20;;
61915;SDS011;47868;51.326;6.550;2022-12-18T06:27:31;13.00;;;9.30;;
61915;SDS011;47868;51.326;6.550;2022-12-18T06:29:58;12.20;;;9.83;;
61915;SDS011;47868;51.326;6.550;2022-12-18T06:32:24;16.77;;;10.50;;
61915;SDS011;47868;51.326;6.550;2022-12-18T06:34:50;19.17;;;10.33;;
61915;SDS011;47868;51.326;6.550;2022-12-18T06:37:16;16.23;;;10.57;;
61915;SDS011;47868;51.326;6.550;2022-12-18T06:39:42;12.50;;;9.53;;
61915;SDS011;47868;51.326;6.550;2022-12-18T06:42:08;16.43;;;10.40;;
61915;SDS011;47868;51.326;6.550;2022-12-18T06:44:34;13.43;;;9.60;;
61915;SDS011;47868;51.326;6.550;2022-12-18T06:47:00;14.70;;;9.27;;
61915;SDS011;47868;51.326;6.550;2022-12-18T06:49:26;15.80;;;10.33;;
61915;SDS011;47868;51.326;6.550;2022-12-18T06:51:52;13.80;;;10.10;;
61915;SDS011;47868;51.326;6.550;2022-12-18T06:54:18;13.90;;;10.07;;
61915;SDS011;47868;51.326;6.550;2022-12-18T06:56:45;17.10;;;10.07;;
61915;SDS011;47868;51.326;6.550;2022-12-18T06:59:12;16.80;;;10.97;;
61915;SDS011;47868;51.326;6.550;2022-12-18T07:01:38;13.17;;;9.40;;
61915;SDS011;47868;51.326;6.550;2022-12-18T07:04:04;14.90;;;10.20;;
61915;SDS011;47868;51.326;6.550;2022-12-18T07:06:30;13.43;;;9.80;;
61915;SDS011;47868;51.326;6.550;2022-12-18T07:08:56;16.03;;;10.53;;
61915;SDS011;47868;51.326;6.550;2022-12-18T07:11:22;16.73;;;9.73;;
61915;SDS011;47868;51.326;6.550;2022-12-18T07:13:48;13.93;;;10.27;;
61915;SDS011;47868;51.326;6.550;2022-12-18T07:16:15;18.50;;;11.80;;
61915;SDS011;47868;51.326;6.550;2022-12-18T07:18:42;15.33;;;9.57;;
61915;SDS011;47868;51.326;6.550;2022-12-18T07:21:10;16.10;;;9.87;;
61915;SDS011;47868;51.326;6.550;2022-12-18T07:23:36;12.40;;;9.03;;
61915;SDS011;47868;51.326;6.550;2022-12-18T07:26:09;13.97;;;9.30;;
61915;SDS011;47868;51.326;6.550;2022-12-18T07:28:36;14.50;;;9.23;;
61915;SDS011;47868;51.326;6.550;2022-12-18T07:31:06;17.47;;;10.20;;
61915;SDS011;47868;51.326;6.550;2022-12-18T07:33:33;14.60;;;9.60;;
61915;SDS011;47868;51.326;6.550;2022-12-18T07:35:59;14.87;;;9.77;;
61915;SDS011;47868;51.326;6.550;2022-12-18T07:38:25;15.77;;;10.20;;
61915;SDS011;47868;51.326;6.550;2022-12-18T07:40:51;12.97;;;9.63;;
61915;SDS011;47868;51.326;6.550;2022-12-18T07:43:17;14.93;;;9.87;;
61915;SDS011;47868;51.326;6.550;2022-12-18T07:45:44;13.23;;;9.80;;
61915;SDS011;47868;51.326;6.550;2022-12-18T07:48:10;17.20;;;10.47;;
61915;SDS011;47868;51.326;6.550;2022-12-18T07:50:36;15.43;;;10.27;;
61915;SDS011;47868;51.326;6.550;2022-12-18T07:53:02;14.70;;;10.57;;
61915;SDS011;47868;51.326;6.550;2022-12-18T07:55:30;15.83;;;10.47;;
61915;SDS011;47868;51.326;6.550;2022-12-18T07:57:56;15.70;;;11.13;;
61915;SDS011;47868;51.326;6.550;2022-12-18T08:00:22;16.10;;;10.83;;
61915;SDS011;47868;51.326;6.550;2022-12-18T08:02:48;14.60;;;10.27;;
61915;SDS011;47868;51.326;6.550;2022-12-18T08:05:14;16.37;;;10.50;;
61915;SDS011;47868;51.326;6.550;2022-12-18T08:07:40;17.60;;;11.63;;
61915;SDS011;47868;51.326;6.550;2022-12-18T08:10:06;17.10;;;11.13;;
61915;SDS011;47868;51.326;6.550;2022-12-18T08:12:32;16.87;;;11.27;;
61915;SDS011;47868;51.326;6.550;2022-12-18T08:14:58;16.73;;;11.50;;
61915;SDS011;47868;51.326;6.550;2022-12-18T08:17:24;17.20;;;11.27;;
61915;SDS011;47868;51.326;6.550;2022-12-18T08:19:50;16.00;;;11.60;;
61915;SDS011;47868;51.326;6.550;2022-12-18T08:22:16;16.87;;;11.20;;
61915;SDS011;47868;51.326;6.550;2022-12-18T08:24:42;15.93;;;10.83;;
61915;SDS011;47868;51.326;6.550;2022-12-18T08:27:08;15.83;;;10.60;;
61915;SDS011;47868;51.326;6.550;2022-12-18T08:29:34;14.40;;;10.93;;
61915;SDS011;47868;51.326;6.550;2022-12-18T08:32:00;16.93;;;10.13;;
61915;SDS011;47868;51.326;6.550;2022-12-18T08:34:26;18.63;;;11.30;;
61915;SDS011;47868;51.326;6.550;2022-12-18T08:36:52;14.50;;;10.73;;
61915;SDS011;47868;51.326;6.550;2022-12-18T08:39:18;18.93;;;11.70;;
61915;SDS011;47868;51.326;6.550;2022-12-18T08:41:44;15.93;;;10.97;;
61915;SDS011;47868;51.326;6.550;2022-12-18T08:44:30;19.93;;;10.87;;
61915;SDS011;47868;51.326;6.550;2022-12-18T08:47:02;15.80;;;11.23;;
61915;SDS011;47868;51.326;6.550;2022-12-18T08:49:28;16.90;;;11.43;;
61915;SDS011;47868;51.326;6.550;2022-12-18T08:51:54;16.67;;;11.50;;
61915;SDS011;47868;51.326;6.550;2022-12-18T08:54:23;17.57;;;11.83;;
61915;SDS011;47868;51.326;6.550;2022-12-18T08:56:49;14.73;;;10.37;;
61915;SDS011;47868;51.326;6.550;2022-12-18T08:59:18;16.80;;;10.63;;
61915;SDS011;47868;51.326;6.550;2022-12-18T09:01:45;16.47;;;10.60;;
61915;SDS011;47868;51.326;6.550;2022-12-18T09:04:11;17.47;;;12.50;;
61915;SDS011;47868;51.326;6.550;2022-12-18T09:06:37;16.70;;;10.97;;
61915;SDS011;47868;51.326;6.550;2022-12-18T09:09:03;16.00;;;11.63;;
61915;SDS011;47868;51.326;6.550;2022-12-18T09:11:30;17.77;;;12.23;;
61915;SDS011;47868;51.326;6.550;2022-12-18T09:13:56;17.40;;;10.90;;
61915;SDS011;47868;51.326;6.550;2022-12-18T09:16:24;15.70;;;11.17;;
61915;SDS011;47868;51.326;6.550;2022-12-18T09:18:50;17.70;;;12.13;;
61915;SDS011;47868;51.326;6.550;2022-12-18T09:21:19;15.90;;;11.63;;
61915;SDS011;47868;51.326;6.550;2022-12-18T09:23:52;17.23;;;10.80;;
61915;SDS011;47868;51.326;6.550;2022-12-18T09:26:18;15.70;;;11.43;;
61915;SDS011;47868;51.326;6.550;2022-12-18T09:28:44;18.30;;;11.83;;
61915;SDS011;47868;51.326;6.550;2022-12-18T09:31:11;19.03;;;11.57;;
61915;SDS011;47868;51.326;6.550;2022-12-18T09:33:40;16.97;;;11.97;;
61915;SDS011;47868;51.326;6.550;2022-12-18T09:36:07;18.83;;;11.50;;
61915;SDS011;47868;51.326;6.550;2022-12-18T09:38:33;18.00;;;11.17;;
61915;SDS011;47868;51.326;6.550;2022-12-18T09:41:42;13.97;;;10.60;;
61915;SDS011;47868;51.326;6.550;2022-12-18T09:43:50;15.90;;;11.57;;
61915;SDS011;47868;51.326;6.550;2022-12-18T09:46:18;16.53;;;11.03;;
61915;SDS011;47868;51.326;6.550;2022-12-18T09:48:46;19.93;;;11.80;;
61915;SDS011;47868;51.326;6.550;2022-12-18T09:51:18;16.03;;;11.10;;
61915;SDS011;47868;51.326;6.550;2022-12-18T09:53:47;16.23;;;11.03;;
61915;SDS011;47868;51.326;6.550;2022-12-18T09:56:19;14.97;;;11.10;;
61915;SDS011;47868;51.326;6.550;2022-12-18T09:58:49;18.40;;;11.23;;
61915;SDS011;47868;51.326;6.550;2022-12-18T10:01:21;16.43;;;10.87;;
61915;SDS011;47868;51.326;6.550;2022-12-18T10:03:48;14.87;;;10.07;;
61915;SDS011;47868;51.326;6.550;2022-12-18T10:06:15;14.63;;;10.83;;
61915;SDS011;47868;51.326;6.550;2022-12-18T10:09:02;18.43;;;11.33;;
61915;SDS011;47868;51.326;6.550;2022-12-18T10:17:15;17.10;;;11.33;;
61915;SDS011;47868;51.326;6.550;2022-12-18T10:27:26;21.07;;;12.77;;
61915;SDS011;47868;51.326;6.550;2022-12-18T10:29:52;15.47;;;10.90;;
61915;SDS011;47868;51.326;6.550;2022-12-18T10:32:20;18.83;;;11.93;;
61915;SDS011;47868;51.326;6.550;2022-12-18T10:34:47;16.33;;;11.13;;
61915;SDS011;47868;51.326;6.550;2022-12-18T10:37:18;17.17;;;12.53;;
61915;SDS011;47868;51.326;6.550;2022-12-18T10:39:44;20.23;;;11.90;;
61915;SDS011;47868;51.326;6.550;2022-12-18T10:42:19;17.67;;;11.10;;
61915;SDS011;47868;51.326;6.550;2022-12-18T10:44:45;15.97;;;11.63;;
61915;SDS011;47868;51.326;6.550;2022-12-18T10:47:13;14.47;;;11.23;;
61915;SDS011;47868;51.326;6.550;2022-12-18T10:49:42;16.73;;;11.77;;
61915;SDS011;47868;51.326;6.550;2022-12-18T10:52:16;17.83;;;12.57;;
61915;SDS011;47868;51.326;6.550;2022-12-18T10:54:46;19.50;;;12.43;;
61915;SDS011;47868;51.326;6.550;2022-12-18T10:57:19;19.10;;;11.87;;
61915;SDS011;47868;51.326;6.550;2022-12-18T10:59:57;18.10;;;12.03;;
61915;SDS011;47868;51.326;6.550;2022-12-18T11:04:52;16.70;;;12.00;;
61915;SDS011;47868;51.326;6.550;2022-12-18T11:07:18;18.93;;;12.27;;
61915;SDS011;47868;51.326;6.550;2022-12-18T11:09:45;21.23;;;13.00;;
61915;SDS011;47868;51.326;6.550;2022-12-18T11:12:28;22.23;;;12.67;;
61915;SDS011;47868;51.326;6.550;2022-12-18T11:14:54;18.90;;;12.20;;
61915;SDS011;47868;51.326;6.550;2022-12-18T11:17:27;19.20;;;11.83;;
61915;SDS011;47868;51.326;6.550;2022-12-18T11:19:58;16.33;;;12.83;;
61915;SDS011;47868;51.326;6.550;2022-12-18T11:22:28;22.10;;;12.83;;
61915;SDS011;47868;51.326;6.550;2022-12-18T11:24:56;17.30;;;13.27;;
61915;SDS011;47868;51.326;6.550;2022-12-18T11:27:23;18.20;;;12.17;;
61915;SDS011;47868;51.326;6.550;2022-12-18T11:29:49;16.63;;;12.30;;
61915;SDS011;47868;51.326;6.550;2022-12-18T11:32:22;18.97;;;13.40;;
61915;SDS011;47868;51.326;6.550;2022-12-18T11:34:51;16.30;;;12.93;;
61915;SDS011;47868;51.326;6.550;2022-12-18T11:37:18;20.10;;;12.77;;
61915;SDS011;47868;51.326;6.550;2022-12-18T11:39:46;18.83;;;13.00;;
61915;SDS011;47868;51.326;6.550;2022-12-18T11:42:20;20.27;;;12.80;;
61915;SDS011;47868;51.326;6.550;2022-12-18T11:49:50;20.07;;;13.17;;
61915;SDS011;47868;51.326;6.550;2022-12-18T11:52:24;21.30;;;12.83;;
61915;SDS011;47868;51.326;6.550;2022-12-18T11:54:52;23.50;;;13.70;;
61915;SDS011;47868;51.326;6.550;2022-12-18T12:15:31;24.10;;;13.97;;
61915;SDS011;47868;51.326;6.550;2022-12-18T12:21:00;18.63;;;13.57;;
61915;SDS011;47868;51.326;6.550;2022-12-18T12:26:03;24.13;;;15.07;;
61915;SDS011;47868;51.326;6.550;2022-12-18T12:31:06;17.90;;;13.30;;
61915;SDS011;47868;51.326;6.550;2022-12-18T12:38:46;19.00;;;13.60;;
61915;SDS011;47868;51.326;6.550;2022-12-18T12:41:16;20.90;;;14.53;;
61915;SDS011;47868;51.326;6.550;2022-12-18T12:44:03;19.63;;;13.97;;
61915;SDS011;47868;51.326;6.550;2022-12-18T12:46:31;19.43;;;13.97;;
61915;SDS011;47868;51.326;6.550;2022-12-18T12:48:59;26.33;;;15.77;;
61915;SDS011;47868;51.326;6.550;2022-12-18T12:51:32;24.57;;;15.17;;
61915;SDS011;47868;51.326;6.550;2022-12-18T12:53:58;22.63;;;15.90;;
61915;SDS011;47868;51.326;6.550;2022-12-18T12:56:27;20.73;;;14.83;;
61915;SDS011;47868;51.326;6.550;2022-12-18T13:04:03;23.33;;;14.60;;
61915;SDS011;47868;51.326;6.550;2022-12-18T13:09:01;21.03;;;15.00;;
61915;SDS011;47868;51.326;6.550;2022-12-18T13:11:32;22.50;;;15.17;;
61915;SDS011;47868;51.326;6.550;2022-12-18T13:14:20;22.93;;;15.17;;
61915;SDS011;47868;51.326;6.550;2022-12-18T13:16:46;23.90;;;14.97;;
61915;SDS011;47868;51.326;6.550;2022-12-18T13:19:20;21.73;;;14.50;;
61915;SDS011;47868;51.326;6.550;2022-12-18T13:21:52;26.63;;;15.63;;
61915;SDS011;47868;51.326;6.550;2022-12-18T13:24:23;23.47;;;15.70;;
61915;SDS011;47868;51.326;6.550;2022-12-18T13:26:50;28.70;;;15.43;;
61915;SDS011;47868;51.326;6.550;2022-12-18T13:32:00;23.57;;;15.50;;
61915;SDS011;47868;51.326;6.550;2022-12-18T13:34:27;23.17;;;15.03;;
61915;SDS011;47868;51.326;6.550;2022-12-18T13:37:33;22.90;;;15.13;;
61915;SDS011;47868;51.326;6.550;2022-12-18T13:39:43;25.17;;;15.30;;
61915;SDS011;47868;51.326;6.550;2022-12-18T13:44:55;29.43;;;16.53;;
61915;SDS011;47868;51.326;6.550;2022-12-18T13:47:34;26.53;;;16.57;;
61915;SDS011;47868;51.326;6.550;2022-12-18T13:50:23;27.13;;;15.97;;
61915;SDS011;47868;51.326;6.550;2022-12-18T13:52:51;23.83;;;16.43;;
61915;SDS011;47868;51.326;6.550;2022-12-18T13:55:18;21.73;;;15.83;;
61915;SDS011;47868;51.326;6.550;2022-12-18T13:57:45;25.73;;;15.77;;
61915;SDS011;47868;51.326;6.550;2022-12-18T14:02:50;24.40;;;16.40;;
61915;SDS011;47868;51.326;6.550;2022-12-18T14:05:26;28.03;;;17.03;;
61915;SDS011;47868;51.326;6.550;2022-12-18T14:07:53;24.80;;;16.50;;
61915;SDS011;47868;51.326;6.550;2022-12-18T14:10:19;23.90;;;16.17;;
61915;SDS011;47868;51.326;6.550;2022-12-18T14:12:49;22.07;;;15.47;;
61915;SDS011;47868;51.326;6.550;2022-12-18T14:15:31;24.50;;;16.77;;
61915;SDS011;47868;51.326;6.550;2022-12-18T14:17:59;27.40;;;15.97;;
61915;SDS011;47868;51.326;6.550;2022-12-18T14:20:26;25.47;;;16.20;;
61915;SDS011;47868;51.326;6.550;2022-12-18T14:22:52;26.10;;;17.47;;
61915;SDS011;47868;51.326;6.550;2022-12-18T14:25:20;25.83;;;17.90;;
61915;SDS011;47868;51.326;6.550;2022-12-18T14:27:48;26.37;;;16.17;;
61915;SDS011;47868;51.326;6.550;2022-12-18T14:30:23;26.60;;;16.80;;
61915;SDS011;47868;51.326;6.550;2022-12-18T14:32:59;30.00;;;18.10;;
61915;SDS011;47868;51.326;6.550;2022-12-18T14:35:25;28.27;;;17.20;;
61915;SDS011;47868;51.326;6.550;2022-12-18T14:37:51;25.93;;;16.43;;
61915;SDS011;47868;51.326;6.550;2022-12-18T14:40:17;24.70;;;16.77;;
61915;SDS011;47868;51.326;6.550;2022-12-18T14:42:43;26.77;;;17.27;;
61915;SDS011;47868;51.326;6.550;2022-12-18T14:47:54;28.43;;;17.57;;
61915;SDS011;47868;51.326;6.550;2022-12-18T14:50:20;27.47;;;18.10;;
61915;SDS011;47868;51.326;6.550;2022-12-18T14:52:46;27.67;;;17.67;;
61915;SDS011;47868;51.326;6.550;2022-12-18T14:55:14;29.17;;;18.17;;
61915;SDS011;47868;51.326;6.550;2022-12-18T14:57:40;32.07;;;18.67;;
61915;SDS011;47868;51.326;6.550;2022-12-18T15:00:15;29.23;;;18.30;;
61915;SDS011;47868;51.326;6.550;2022-12-18T15:02:41;27.23;;;17.53;;
61915;SDS011;47868;51.326;6.550;2022-12-18T15:07:41;30.13;;;19.20;;
61915;SDS011;47868;51.326;6.550;2022-12-18T15:12:39;30.93;;;18.93;;
61915;SDS011;47868;51.326;6.550;2022-12-18T15:15:41;27.80;;;18.17;;
61915;SDS011;47868;51.326;6.550;2022-12-18T15:18:01;29.20;;;17.07;;
61915;SDS011;47868;51.326;6.550;2022-12-18T15:20:27;27.73;;;18.30;;
61915;SDS011;47868;51.326;6.550;2022-12-18T15:22:53;24.17;;;17.00;;
61915;SDS011;47868;51.326;6.550;2022-12-18T15:25:24;29.43;;;18.87;;
61915;SDS011;47868;51.326;6.550;2022-12-18T15:27:53;30.20;;;20.67;;
61915;SDS011;47868;51.326;6.550;2022-12-18T15:30:20;32.33;;;18.93;;
61915;SDS011;47868;51.326;6.550;2022-12-18T15:32:46;30.67;;;18.77;;
61915;SDS011;47868;51.326;6.550;2022-12-18T15:35:15;31.63;;;19.77;;
61915;SDS011;47868;51.326;6.550;2022-12-18T15:37:41;29.87;;;19.60;;
61915;SDS011;47868;51.326;6.550;2022-12-18T15:40:12;29.13;;;19.63;;
61915;SDS011;47868;51.326;6.550;2022-12-18T15:42:38;27.77;;;19.50;;
61915;SDS011;47868;51.326;6.550;2022-12-18T15:45:23;28.37;;;19.07;;
61915;SDS011;47868;51.326;6.550;2022-12-18T15:47:49;27.47;;;18.80;;
61915;SDS011;47868;51.326;6.550;2022-12-18T15:50:15;31.87;;;19.53;;
61915;SDS011;47868;51.326;6.550;2022-12-18T15:52:45;26.73;;;19.00;;
61915;SDS011;47868;51.326;6.550;2022-12-18T15:55:12;29.70;;;19.00;;
61915;SDS011;47868;51.326;6.550;2022-12-18T15:57:58;30.93;;;19.10;;
61915;SDS011;47868;51.326;6.550;2022-12-18T16:00:24;30.30;;;20.10;;
61915;SDS011;47868;51.326;6.550;2022-12-18T16:02:50;28.30;;;19.27;;
61915;SDS011;47868;51.326;6.550;2022-12-18T16:05:17;30.57;;;19.80;;
61915;SDS011;47868;51.326;6.550;2022-12-18T16:07:43;28.00;;;19.20;;